createdAt,value
2022-12-11T00:00:25.635Z,0
2022-12-11T00:01:25.628Z,0
2022-12-11T00:02:25.804Z,0
2022-12-11T00:03:25.957Z,0
2022-12-11T00:04:25.635Z,0
2022-12-11T00:05:25.841Z,0
2022-12-11T00:06:25.644Z,0
2022-12-11T00:07:25.605Z,0
2022-12-11T00:08:26.078Z,0
2022-12-11T00:09:25.625Z,0
2022-12-11T00:10:25.655Z,0
2022-12-11T00:11:28.427Z,0
2022-12-11T00:12:25.609Z,0
2022-12-11T00:13:26.667Z,0
2022-12-11T00:14:25.653Z,0
2022-12-11T00:15:25.695Z,0
2022-12-11T00:16:32.403Z,0
2022-12-11T00:17:25.644Z,0
2022-12-11T00:18:25.618Z,0
2022-12-11T00:19:25.641Z,0
2022-12-11T00:20:25.652Z,0
2022-12-11T00:21:25.695Z,0
2022-12-11T00:22:28.661Z,0
2022-12-11T00:23:25.699Z,0
2022-12-11T00:24:25.646Z,0
2022-12-11T00:25:25.674Z,0
2022-12-11T00:26:25.688Z,0
2022-12-11T00:27:28.679Z,0
2022-12-11T00:28:25.650Z,0
2022-12-11T00:29:25.655Z,0
2022-12-11T00:30:25.681Z,0
2022-12-11T00:31:26.129Z,0
2022-12-11T00:32:28.036Z,0
2022-12-11T00:33:28.663Z,0
2022-12-11T00:34:25.757Z,0
2022-12-11T00:35:25.660Z,0
2022-12-11T00:36:25.698Z,0
2022-12-11T00:37:25.912Z,0
2022-12-11T00:38:28.630Z,0
2022-12-11T00:39:25.666Z,0
2022-12-11T00:40:25.712Z,0
2022-12-11T00:41:25.743Z,0
2022-12-11T00:42:25.699Z,0
2022-12-11T00:43:25.671Z,0
2022-12-11T00:44:28.704Z,0
2022-12-11T00:45:25.767Z,0
2022-12-11T00:46:26.020Z,0
2022-12-11T00:47:25.740Z,0
2022-12-11T00:48:25.683Z,0
2022-12-11T00:49:28.741Z,0
2022-12-11T00:50:25.678Z,0
2022-12-11T00:51:25.740Z,0
2022-12-11T00:52:25.760Z,0
2022-12-11T00:53:25.666Z,0
2022-12-11T00:54:25.679Z,0
2022-12-11T00:55:28.859Z,0
2022-12-11T00:56:25.721Z,0
2022-12-11T00:57:25.741Z,0
2022-12-11T00:58:25.730Z,0
2022-12-11T00:59:25.711Z,0
2022-12-11T01:00:28.712Z,0
2022-12-11T01:01:27.106Z,0
2022-12-11T01:02:25.857Z,0
2022-12-11T01:03:25.756Z,0
2022-12-11T01:04:25.716Z,0
2022-12-11T01:05:25.699Z,0
2022-12-11T01:06:28.913Z,0
2022-12-11T01:07:25.840Z,0
2022-12-11T01:08:26.061Z,0
2022-12-11T01:09:25.725Z,0
2022-12-11T01:10:25.957Z,0
2022-12-11T01:11:26.690Z,0
2022-12-11T01:12:25.772Z,0
2022-12-11T01:13:25.731Z,0
2022-12-11T01:14:25.752Z,0
2022-12-11T01:15:25.728Z,0
2022-12-11T01:16:26.108Z,0
2022-12-11T01:17:28.797Z,0
2022-12-11T01:18:25.766Z,0
2022-12-11T01:19:25.795Z,0
2022-12-11T01:20:25.755Z,0
2022-12-11T01:21:25.763Z,0
2022-12-11T01:22:30.591Z,0
2022-12-11T01:23:25.723Z,0
2022-12-11T01:24:25.744Z,0
2022-12-11T01:25:25.760Z,0
2022-12-11T01:26:25.789Z,0
2022-12-11T01:27:25.755Z,0
2022-12-11T01:28:28.535Z,0
2022-12-11T01:29:25.756Z,0
2022-12-11T01:30:25.853Z,0
2022-12-11T01:31:25.983Z,0
2022-12-11T01:32:25.727Z,0
2022-12-11T01:33:28.832Z,0
2022-12-11T01:34:25.780Z,0
2022-12-11T01:35:25.960Z,0
2022-12-11T01:36:25.788Z,0
2022-12-11T01:37:25.754Z,0
2022-12-11T01:38:25.773Z,0
2022-12-11T01:39:25.751Z,0
2022-12-11T01:40:25.762Z,0
2022-12-11T01:41:25.771Z,0
2022-12-11T01:42:25.768Z,0
2022-12-11T01:43:25.793Z,0
2022-12-11T01:44:28.759Z,0
2022-12-11T01:45:29.162Z,0
2022-12-11T01:46:26.115Z,0
2022-12-11T01:47:25.763Z,0
2022-12-11T01:48:27.839Z,0
2022-12-11T01:49:25.793Z,0
2022-12-11T01:50:25.796Z,0
2022-12-11T01:51:26.883Z,0
2022-12-11T01:52:25.766Z,0
2022-12-11T01:53:25.808Z,0
2022-12-11T01:54:25.775Z,0
2022-12-11T01:55:28.907Z,0
2022-12-11T01:56:25.813Z,0
2022-12-11T01:57:25.814Z,0
2022-12-11T01:58:25.779Z,0
2022-12-11T01:59:25.813Z,0
2022-12-11T02:00:25.825Z,0
2022-12-11T02:01:26.261Z,0
2022-12-11T02:02:26.038Z,0
2022-12-11T02:03:25.786Z,0
2022-12-11T02:04:25.832Z,0
2022-12-11T02:05:25.801Z,0
2022-12-11T02:06:25.936Z,0
2022-12-11T02:07:25.848Z,0
2022-12-11T02:08:26.071Z,0
2022-12-11T02:09:25.994Z,0
2022-12-11T02:10:25.809Z,0
2022-12-11T02:11:29.040Z,0
2022-12-11T02:12:25.823Z,0
2022-12-11T02:13:25.823Z,0
2022-12-11T02:14:25.831Z,0
2022-12-11T02:15:25.803Z,0
2022-12-11T02:16:26.155Z,0
2022-12-11T02:17:25.834Z,0
2022-12-11T02:18:25.851Z,0
2022-12-11T02:19:25.833Z,0
2022-12-11T02:20:25.857Z,0
2022-12-11T02:21:25.834Z,0
2022-12-11T02:22:25.862Z,0
2022-12-11T02:23:25.891Z,0
2022-12-11T02:24:25.839Z,0
2022-12-11T02:25:25.844Z,0
2022-12-11T02:26:25.846Z,0
2022-12-11T02:27:25.892Z,0
2022-12-11T02:28:25.829Z,0
2022-12-11T02:30:25.842Z,0
2022-12-11T02:31:26.037Z,0
2022-12-11T02:32:25.852Z,0
2022-12-11T02:33:31.498Z,0
2022-12-11T02:34:25.846Z,0
2022-12-11T02:35:25.866Z,0
2022-12-11T02:36:25.856Z,0
2022-12-11T02:37:25.850Z,0
2022-12-11T02:38:29.048Z,0
2022-12-11T02:39:25.851Z,0
2022-12-11T02:40:25.844Z,0
2022-12-11T02:41:25.879Z,0
2022-12-11T02:42:25.832Z,0
2022-12-11T02:43:29.022Z,0
2022-12-11T02:44:25.913Z,0
2022-12-11T02:45:25.877Z,0
2022-12-11T02:46:25.973Z,0
2022-12-11T02:47:25.861Z,0
2022-12-11T02:48:25.864Z,0
2022-12-11T02:49:28.940Z,0
2022-12-11T02:50:25.889Z,0
2022-12-11T02:51:25.887Z,0
2022-12-11T02:52:25.873Z,0
2022-12-11T02:53:25.884Z,0
2022-12-11T02:54:29.028Z,0
2022-12-11T02:55:25.929Z,0
2022-12-11T02:56:25.884Z,0
2022-12-11T02:57:25.891Z,0
2022-12-11T02:58:25.892Z,0
2022-12-11T02:59:26.063Z,0
2022-12-11T03:00:28.885Z,0
2022-12-11T03:01:26.067Z,0
2022-12-11T03:02:26.218Z,0
2022-12-11T03:03:25.953Z,0
2022-12-11T03:04:25.903Z,0
2022-12-11T03:05:28.940Z,0
2022-12-11T03:06:25.917Z,0
2022-12-11T03:07:25.915Z,0
2022-12-11T03:08:26.272Z,0
2022-12-11T03:09:25.991Z,0
2022-12-11T03:10:26.005Z,0
2022-12-11T03:11:28.986Z,0
2022-12-11T03:12:25.901Z,0
2022-12-11T03:13:25.892Z,0
2022-12-11T03:14:25.904Z,0
2022-12-11T03:15:25.912Z,0
2022-12-11T03:16:29.256Z,0
2022-12-11T03:17:25.901Z,0
2022-12-11T03:18:26.954Z,0
2022-12-11T03:19:25.936Z,0
2022-12-11T03:20:25.911Z,0
2022-12-11T03:21:25.969Z,0
2022-12-11T03:22:29.090Z,0
2022-12-11T03:23:25.916Z,0
2022-12-11T03:24:25.922Z,0
2022-12-11T03:25:25.963Z,0
2022-12-11T03:26:26.167Z,0
2022-12-11T03:27:29.148Z,0
2022-12-11T03:28:26.960Z,0
2022-12-11T03:29:25.961Z,0
2022-12-11T03:30:26.107Z,0
2022-12-11T03:31:25.933Z,0
2022-12-11T03:32:25.965Z,0
2022-12-11T03:33:28.968Z,0
2022-12-11T03:34:25.943Z,0
2022-12-11T03:35:25.965Z,0
2022-12-11T03:36:25.942Z,0
2022-12-11T03:37:26.015Z,0
2022-12-11T03:38:29.075Z,0
2022-12-11T03:39:26.003Z,0
2022-12-11T03:40:25.997Z,0
2022-12-11T03:41:25.951Z,0
2022-12-11T03:42:26.163Z,0
2022-12-11T03:43:25.956Z,0
2022-12-11T03:44:28.986Z,0
2022-12-11T03:45:26.052Z,0
2022-12-11T03:46:26.146Z,0
2022-12-11T03:47:25.949Z,0
2022-12-11T03:48:25.958Z,0
2022-12-11T03:49:28.981Z,0
2022-12-11T03:50:26.025Z,0
2022-12-11T03:51:25.975Z,0
2022-12-11T03:52:25.982Z,0
2022-12-11T03:53:26.006Z,0
2022-12-11T03:54:25.980Z,0
2022-12-11T03:55:25.962Z,0
2022-12-11T03:56:25.956Z,0
2022-12-11T03:57:26.179Z,0
2022-12-11T03:58:26.074Z,0
2022-12-11T03:59:25.978Z,0
2022-12-11T04:00:29.063Z,0
2022-12-11T04:01:26.215Z,0
2022-12-11T04:02:26.187Z,0
2022-12-11T04:03:26.072Z,0
2022-12-11T04:04:26.369Z,0
2022-12-11T04:05:25.986Z,0
2022-12-11T04:06:26.011Z,0
2022-12-11T04:07:26.018Z,0
2022-12-11T04:08:26.478Z,0
2022-12-11T04:09:26.015Z,0
2022-12-11T04:10:26.003Z,0
2022-12-11T04:11:29.107Z,0
2022-12-11T04:12:26.019Z,0
2022-12-11T04:13:26.004Z,0
2022-12-11T04:14:26.065Z,0
2022-12-11T04:15:26.019Z,0
2022-12-11T04:16:26.133Z,0
2022-12-11T04:17:30.486Z,0
2022-12-11T04:18:26.027Z,0
2022-12-11T04:19:26.016Z,0
2022-12-11T04:20:26.066Z,0
2022-12-11T04:21:26.024Z,0
2022-12-11T04:22:30.880Z,0
2022-12-11T04:23:26.009Z,0
2022-12-11T04:24:26.014Z,0
2022-12-11T04:25:26.053Z,0
2022-12-11T04:26:26.029Z,0
2022-12-11T04:27:26.055Z,0
2022-12-11T04:28:26.033Z,0
2022-12-11T04:29:26.034Z,0
2022-12-11T04:30:33.881Z,0
2022-12-11T04:31:26.374Z,0
2022-12-11T04:32:26.106Z,0
2022-12-11T04:33:26.032Z,0
2022-12-11T04:34:26.108Z,0
2022-12-11T04:35:26.042Z,0
2022-12-11T04:36:26.028Z,0
2022-12-11T04:37:26.045Z,0
2022-12-11T04:38:29.067Z,0
2022-12-11T04:39:26.062Z,0
2022-12-11T04:40:26.052Z,0
2022-12-11T04:41:26.072Z,0
2022-12-11T04:42:26.056Z,0
2022-12-11T04:43:26.064Z,0
2022-12-11T04:44:26.048Z,0
2022-12-11T04:45:26.104Z,0
2022-12-11T04:46:26.471Z,0
2022-12-11T04:47:26.129Z,0
2022-12-11T04:48:26.046Z,0
2022-12-11T04:49:26.060Z,0
2022-12-11T04:50:26.074Z,0
2022-12-11T04:51:26.056Z,0
2022-12-11T04:52:27.114Z,0
2022-12-11T04:53:26.074Z,0
2022-12-11T04:54:26.069Z,0
2022-12-11T04:55:26.073Z,0
2022-12-11T04:56:26.053Z,0
2022-12-11T04:57:26.124Z,0
2022-12-11T04:58:26.088Z,0
2022-12-11T04:59:26.101Z,0
2022-12-11T05:00:26.059Z,0
2022-12-11T05:01:26.475Z,0
2022-12-11T05:02:26.413Z,0
2022-12-11T05:03:26.088Z,0
2022-12-11T05:04:26.093Z,0
2022-12-11T05:05:29.120Z,0
2022-12-11T05:06:26.090Z,0
2022-12-11T05:07:26.123Z,0
2022-12-11T05:08:26.388Z,0
2022-12-11T05:09:26.095Z,0
2022-12-11T05:10:29.142Z,0
2022-12-11T05:11:26.129Z,0
2022-12-11T05:12:26.116Z,0
2022-12-11T05:13:26.129Z,0
2022-12-11T05:14:26.087Z,0
2022-12-11T05:15:26.116Z,0
2022-12-11T05:16:29.048Z,0
2022-12-11T05:17:26.118Z,0
2022-12-11T05:18:26.212Z,0
2022-12-11T05:19:26.089Z,0
2022-12-11T05:20:26.117Z,0
2022-12-11T05:21:35.539Z,0
2022-12-11T05:22:26.153Z,0
2022-12-11T05:23:26.111Z,0
2022-12-11T05:24:26.114Z,0
2022-12-11T05:25:26.130Z,0
2022-12-11T05:26:26.114Z,0
2022-12-11T05:27:29.538Z,0
2022-12-11T05:28:26.113Z,0
2022-12-11T05:29:27.172Z,0
2022-12-11T05:30:26.138Z,0
2022-12-11T05:31:26.394Z,0
2022-12-11T05:32:28.966Z,0
2022-12-11T05:33:26.127Z,0
2022-12-11T05:34:26.198Z,0
2022-12-11T05:35:26.138Z,0
2022-12-11T05:36:26.133Z,0
2022-12-11T05:37:26.129Z,0
2022-12-11T05:38:29.194Z,0
2022-12-11T05:39:29.132Z,0
2022-12-11T05:40:26.128Z,0
2022-12-11T05:41:26.132Z,0
2022-12-11T05:42:33.800Z,0
2022-12-11T05:43:28.923Z,0
2022-12-11T05:44:26.158Z,0
2022-12-11T05:45:26.176Z,0
2022-12-11T05:46:26.396Z,0
2022-12-11T05:47:26.156Z,0
2022-12-11T05:48:26.177Z,0
2022-12-11T05:49:33.675Z,0
2022-12-11T05:50:26.176Z,0
2022-12-11T05:51:26.160Z,0
2022-12-11T05:52:26.159Z,0
2022-12-11T05:53:26.164Z,0
2022-12-11T05:54:26.396Z,0
2022-12-11T05:55:26.442Z,0
2022-12-11T05:56:26.184Z,0
2022-12-11T05:57:26.150Z,0
2022-12-11T05:58:26.226Z,0
2022-12-11T05:59:27.195Z,0
2022-12-11T06:00:32.959Z,0
2022-12-11T06:01:26.187Z,0
2022-12-11T06:02:26.828Z,0
2022-12-11T06:03:26.253Z,0
2022-12-11T06:04:26.163Z,0
2022-12-11T06:05:29.060Z,0
2022-12-11T06:06:26.181Z,0
2022-12-11T06:07:26.209Z,0
2022-12-11T06:08:26.454Z,0
2022-12-11T06:09:26.181Z,0
2022-12-11T06:10:26.177Z,0
2022-12-11T06:11:33.888Z,0
2022-12-11T06:12:26.181Z,0
2022-12-11T06:13:27.229Z,0
2022-12-11T06:14:26.199Z,0
2022-12-11T06:15:26.200Z,0
2022-12-11T06:16:29.539Z,0
2022-12-11T06:17:26.227Z,0
2022-12-11T06:18:26.226Z,0
2022-12-11T06:19:26.198Z,0
2022-12-11T06:20:26.239Z,0
2022-12-11T06:21:26.268Z,0
2022-12-11T06:22:28.984Z,0
2022-12-11T06:23:26.230Z,0
2022-12-11T06:24:26.225Z,0
2022-12-11T06:25:26.216Z,0
2022-12-11T06:26:26.218Z,0
2022-12-11T06:27:30.006Z,0
2022-12-11T06:28:26.241Z,0
2022-12-11T06:29:26.224Z,0
2022-12-11T06:30:40.907Z,0
2022-12-11T06:31:26.679Z,0
2022-12-11T06:32:26.358Z,0
2022-12-11T06:33:33.686Z,0
2022-12-11T06:34:26.234Z,0
2022-12-11T06:35:26.217Z,4
2022-12-11T06:36:26.245Z,0
2022-12-11T06:37:26.280Z,0
2022-12-11T06:38:29.027Z,4
2022-12-11T06:39:26.207Z,0
2022-12-11T06:40:26.237Z,0
2022-12-11T06:41:26.225Z,4
2022-12-11T06:42:26.207Z,0
2022-12-11T06:43:26.283Z,4
2022-12-11T06:44:26.234Z,0
2022-12-11T06:45:26.351Z,4
2022-12-11T06:46:26.647Z,4
2022-12-11T06:47:26.230Z,4
2022-12-11T06:48:26.287Z,4
2022-12-11T06:49:29.315Z,4
2022-12-11T06:50:27.263Z,4
2022-12-11T06:51:26.283Z,8
2022-12-11T06:52:26.243Z,4
2022-12-11T06:53:26.344Z,8
2022-12-11T06:54:26.303Z,8
2022-12-11T06:55:26.290Z,8
2022-12-11T06:56:26.267Z,8
2022-12-11T06:57:26.261Z,8
2022-12-11T06:58:26.343Z,8
2022-12-11T06:59:26.247Z,12
2022-12-11T07:00:26.250Z,8
2022-12-11T07:01:26.608Z,8
2022-12-11T07:02:26.507Z,8
2022-12-11T07:03:26.291Z,8
2022-12-11T07:04:26.311Z,8
2022-12-11T07:05:26.435Z,12
2022-12-11T07:06:26.275Z,12
2022-12-11T07:07:26.307Z,12
2022-12-11T07:08:26.576Z,16
2022-12-11T07:09:26.314Z,12
2022-12-11T07:10:26.289Z,16
2022-12-11T07:11:26.331Z,16
2022-12-11T07:12:26.360Z,20
2022-12-11T07:13:26.284Z,20
2022-12-11T07:14:26.285Z,20
2022-12-11T07:15:26.306Z,20
2022-12-11T07:16:26.608Z,20
2022-12-11T07:17:26.299Z,16
2022-12-11T07:18:26.327Z,20
2022-12-11T07:19:26.285Z,24
2022-12-11T07:20:26.326Z,24
2022-12-11T07:21:26.309Z,24
2022-12-11T07:22:27.349Z,28
2022-12-11T07:23:26.317Z,28
2022-12-11T07:24:26.284Z,36
2022-12-11T07:25:26.341Z,40
2022-12-11T07:26:26.315Z,44
2022-12-11T07:27:26.317Z,44
2022-12-11T07:28:26.366Z,44
2022-12-11T07:29:26.303Z,44
2022-12-11T07:30:26.303Z,44
2022-12-11T07:31:26.729Z,52
2022-12-11T07:32:30.175Z,52
2022-12-11T07:33:26.344Z,52
2022-12-11T07:34:26.295Z,52
2022-12-11T07:35:26.320Z,56
2022-12-11T07:36:26.406Z,60
2022-12-11T07:37:29.407Z,56
2022-12-11T07:38:26.347Z,56
2022-12-11T07:39:26.344Z,56
2022-12-11T07:40:26.328Z,64
2022-12-11T07:41:26.364Z,68
2022-12-11T07:42:26.341Z,68
2022-12-11T07:43:29.389Z,76
2022-12-11T07:44:26.331Z,80
2022-12-11T07:45:26.348Z,84
2022-12-11T07:46:26.500Z,88
2022-12-11T07:47:26.324Z,92
2022-12-11T07:48:27.194Z,92
2022-12-11T07:49:26.327Z,92
2022-12-11T07:50:26.360Z,92
2022-12-11T07:51:26.323Z,96
2022-12-11T07:52:26.356Z,96
2022-12-11T07:53:29.430Z,100
2022-12-11T07:54:29.226Z,104
2022-12-11T07:55:26.350Z,104
2022-12-11T07:56:26.336Z,104
2022-12-11T07:57:26.546Z,104
2022-12-11T07:58:26.404Z,108
2022-12-11T07:59:29.414Z,112
2022-12-11T08:00:26.382Z,120
2022-12-11T08:01:26.713Z,136
2022-12-11T08:02:26.609Z,144
2022-12-11T08:03:26.368Z,152
2022-12-11T08:04:26.391Z,156
2022-12-11T08:05:29.526Z,156
2022-12-11T08:06:26.372Z,160
2022-12-11T08:07:27.381Z,164
2022-12-11T08:08:26.668Z,176
2022-12-11T08:09:28.334Z,184
2022-12-11T08:10:29.418Z,188
2022-12-11T08:11:26.354Z,192
2022-12-11T08:12:26.386Z,200
2022-12-11T08:13:26.438Z,200
2022-12-11T08:14:26.475Z,204
2022-12-11T08:15:26.356Z,200
2022-12-11T08:16:30.813Z,196
2022-12-11T08:17:41.992Z,184
2022-12-11T08:18:26.402Z,184
2022-12-11T08:19:26.398Z,176
2022-12-11T08:20:27.597Z,168
2022-12-11T08:21:29.250Z,164
2022-12-11T08:22:26.417Z,160
2022-12-11T08:23:26.408Z,160
2022-12-11T08:24:26.420Z,160
2022-12-11T08:25:26.392Z,160
2022-12-11T08:26:26.408Z,156
2022-12-11T08:27:29.164Z,156
2022-12-11T08:28:27.682Z,156
2022-12-11T08:29:26.442Z,156
2022-12-11T08:30:26.510Z,160
2022-12-11T08:31:26.581Z,164
2022-12-11T08:32:35.137Z,168
2022-12-11T08:33:26.406Z,164
2022-12-11T08:34:26.429Z,168
2022-12-11T08:35:26.413Z,168
2022-12-11T08:36:26.406Z,168
2022-12-11T08:37:26.445Z,168
2022-12-11T08:38:32.955Z,172
2022-12-11T08:39:26.431Z,176
2022-12-11T08:40:26.531Z,184
2022-12-11T08:41:26.446Z,192
2022-12-11T08:42:26.424Z,204
2022-12-11T08:43:35.249Z,212
2022-12-11T08:44:26.414Z,220
2022-12-11T08:45:26.481Z,224
2022-12-11T08:46:26.827Z,228
2022-12-11T08:47:26.484Z,232
2022-12-11T08:48:26.396Z,240
2022-12-11T08:49:34.144Z,244
2022-12-11T08:50:26.434Z,252
2022-12-11T08:51:26.446Z,248
2022-12-11T08:52:26.428Z,248
2022-12-11T08:53:26.430Z,244
2022-12-11T08:54:29.602Z,244
2022-12-11T08:55:26.455Z,244
2022-12-11T08:56:26.533Z,248
2022-12-11T08:57:26.471Z,248
2022-12-11T08:58:26.453Z,244
2022-12-11T08:59:26.466Z,228
2022-12-11T09:00:29.696Z,208
2022-12-11T09:01:26.935Z,188
2022-12-11T09:02:26.738Z,172
2022-12-11T09:03:27.482Z,160
2022-12-11T09:04:26.475Z,152
2022-12-11T09:05:29.282Z,136
2022-12-11T09:06:26.427Z,128
2022-12-11T09:07:26.453Z,124
2022-12-11T09:08:26.843Z,120
2022-12-11T09:09:26.487Z,116
2022-12-11T09:10:26.455Z,116
2022-12-11T09:11:26.446Z,120
2022-12-11T09:12:26.905Z,120
2022-12-11T09:13:26.473Z,124
2022-12-11T09:14:26.497Z,124
2022-12-11T09:15:27.476Z,124
2022-12-11T09:16:31.091Z,128
2022-12-11T09:17:26.462Z,124
2022-12-11T09:18:26.510Z,124
2022-12-11T09:19:32.897Z,124
2022-12-11T09:20:26.489Z,132
2022-12-11T09:21:26.481Z,144
2022-12-11T09:22:26.500Z,148
2022-12-11T09:23:26.478Z,148
2022-12-11T09:24:26.498Z,152
2022-12-11T09:25:26.484Z,156
2022-12-11T09:26:26.495Z,152
2022-12-11T09:27:26.492Z,148
2022-12-11T09:28:26.506Z,144
2022-12-11T09:29:26.497Z,156
2022-12-11T09:30:26.571Z,164
2022-12-11T09:31:26.811Z,172
2022-12-11T09:32:26.536Z,180
2022-12-11T09:33:26.501Z,184
2022-12-11T09:34:33.502Z,192
2022-12-11T09:35:26.514Z,196
2022-12-11T09:36:26.484Z,204
2022-12-11T09:37:26.517Z,204
2022-12-11T09:38:26.524Z,200
2022-12-11T09:39:26.538Z,200
2022-12-11T09:40:26.599Z,192
2022-12-11T09:41:26.510Z,184
2022-12-11T09:42:26.536Z,176
2022-12-11T09:43:26.544Z,172
2022-12-11T09:44:26.565Z,172
2022-12-11T09:45:26.526Z,164
2022-12-11T09:46:36.678Z,156
2022-12-11T09:47:26.515Z,152
2022-12-11T09:48:26.577Z,156
2022-12-11T09:49:26.598Z,168
2022-12-11T09:50:26.563Z,180
2022-12-11T09:51:26.530Z,200
2022-12-11T09:52:27.551Z,208
2022-12-11T09:53:29.728Z,204
2022-12-11T09:54:26.549Z,192
2022-12-11T09:55:26.522Z,188
2022-12-11T09:56:26.558Z,184
2022-12-11T09:57:26.528Z,196
2022-12-11T09:58:26.534Z,208
2022-12-11T09:59:29.349Z,220
2022-12-11T10:00:26.575Z,228
2022-12-11T10:01:26.755Z,240
2022-12-11T10:02:26.779Z,248
2022-12-11T10:03:26.534Z,260
2022-12-11T10:04:27.346Z,264
2022-12-11T10:05:26.553Z,260
2022-12-11T10:06:26.576Z,252
2022-12-11T10:07:26.552Z,244
2022-12-11T10:08:26.759Z,244
2022-12-11T10:09:26.778Z,244
2022-12-11T10:10:29.620Z,248
2022-12-11T10:11:26.573Z,248
2022-12-11T10:12:26.549Z,244
2022-12-11T10:13:26.554Z,252
2022-12-11T10:14:26.729Z,252
2022-12-11T10:15:29.945Z,244
2022-12-11T10:16:26.741Z,220
2022-12-11T10:17:26.611Z,192
2022-12-11T10:18:26.586Z,176
2022-12-11T10:19:26.629Z,164
2022-12-11T10:20:32.618Z,156
2022-12-11T10:21:29.456Z,152
2022-12-11T10:22:26.610Z,148
2022-12-11T10:23:26.557Z,152
2022-12-11T10:25:16.988Z,148
2022-12-11T10:25:27.160Z,144
2022-12-11T10:26:29.450Z,136
2022-12-11T10:27:26.609Z,132
2022-12-11T10:28:26.581Z,124
2022-12-11T10:29:26.617Z,124
2022-12-11T10:30:29.345Z,124
2022-12-11T10:31:26.899Z,120
2022-12-11T10:32:29.284Z,120
2022-12-11T10:33:26.581Z,116
2022-12-11T10:34:26.785Z,108
2022-12-11T10:35:26.620Z,100
2022-12-11T10:36:26.604Z,96
2022-12-11T10:37:29.803Z,96
2022-12-11T10:38:29.636Z,100
2022-12-11T10:39:26.585Z,108
2022-12-11T10:40:26.626Z,108
2022-12-11T10:41:26.591Z,100
2022-12-11T10:42:26.641Z,96
2022-12-11T10:43:29.609Z,92
2022-12-11T10:44:26.621Z,92
2022-12-11T10:45:26.642Z,96
2022-12-11T10:46:26.840Z,100
2022-12-11T10:47:26.885Z,112
2022-12-11T10:48:29.608Z,104
2022-12-11T10:49:26.644Z,96
2022-12-11T10:50:26.638Z,92
2022-12-11T10:51:26.602Z,84
2022-12-11T10:52:26.642Z,84
2022-12-11T10:53:26.683Z,88
2022-12-11T10:54:29.749Z,92
2022-12-11T10:55:26.903Z,100
2022-12-11T10:56:26.612Z,104
2022-12-11T10:57:26.668Z,104
2022-12-11T10:58:26.614Z,100
2022-12-11T10:59:31.098Z,96
2022-12-11T11:00:26.665Z,92
2022-12-11T11:01:26.865Z,88
2022-12-11T11:02:26.910Z,84
2022-12-11T11:03:26.633Z,80
2022-12-11T11:04:26.655Z,80
2022-12-11T11:05:29.539Z,84
2022-12-11T11:06:26.647Z,92
2022-12-11T11:07:26.651Z,96
2022-12-11T11:08:27.054Z,104
2022-12-11T11:09:26.716Z,108
2022-12-11T11:10:29.504Z,116
2022-12-11T11:11:26.664Z,128
2022-12-11T11:12:29.680Z,140
2022-12-11T11:13:26.652Z,148
2022-12-11T11:14:26.706Z,156
2022-12-11T11:15:26.769Z,156
2022-12-11T11:16:29.709Z,160
2022-12-11T11:17:29.537Z,160
2022-12-11T11:18:26.657Z,164
2022-12-11T11:19:26.694Z,164
2022-12-11T11:20:26.752Z,164
2022-12-11T11:21:29.477Z,164
2022-12-11T11:22:26.655Z,156
2022-12-11T11:23:26.680Z,156
2022-12-11T11:24:26.701Z,156
2022-12-11T11:25:26.741Z,164
2022-12-11T11:27:11.464Z,164
2022-12-11T11:27:29.710Z,164
2022-12-11T11:28:26.649Z,164
2022-12-11T11:29:26.677Z,164
2022-12-11T11:30:26.715Z,176
2022-12-11T11:31:26.877Z,192
2022-12-11T11:32:29.675Z,200
2022-12-11T11:33:26.733Z,204
2022-12-11T11:34:26.671Z,204
2022-12-11T11:35:26.796Z,212
2022-12-11T11:36:26.678Z,220
2022-12-11T11:37:26.701Z,228
2022-12-11T11:38:26.692Z,224
2022-12-11T11:39:26.693Z,216
2022-12-11T11:40:26.813Z,204
2022-12-11T11:41:26.776Z,180
2022-12-11T11:42:26.700Z,168
2022-12-11T11:43:29.792Z,164
2022-12-11T11:44:26.738Z,160
2022-12-11T11:45:26.732Z,152
2022-12-11T11:46:27.039Z,140
2022-12-11T11:47:27.698Z,136
2022-12-11T11:48:26.704Z,128
2022-12-11T11:49:26.699Z,124
2022-12-11T11:50:26.765Z,112
2022-12-11T11:51:26.770Z,112
2022-12-11T11:52:26.716Z,104
2022-12-11T11:53:27.052Z,112
2022-12-11T11:54:26.729Z,120
2022-12-11T11:55:29.465Z,128
2022-12-11T11:56:26.717Z,136
2022-12-11T11:57:32.770Z,144
2022-12-11T11:58:26.757Z,156
2022-12-11T11:59:26.729Z,176
2022-12-11T12:00:33.778Z,204
2022-12-11T12:01:26.734Z,220
2022-12-11T12:02:27.013Z,244
2022-12-11T12:03:26.725Z,272
2022-12-11T12:04:26.727Z,292
2022-12-11T12:05:26.776Z,292
2022-12-11T12:06:26.746Z,276
2022-12-11T12:07:26.747Z,252
2022-12-11T12:08:26.985Z,224
2022-12-11T12:09:26.942Z,208
2022-12-11T12:10:26.758Z,212
2022-12-11T12:11:26.757Z,224
2022-12-11T12:12:38.506Z,224
2022-12-11T12:13:55.421Z,208
2022-12-11T12:14:57.720Z,208
2022-12-11T12:15:26.782Z,204
2022-12-11T12:16:58.850Z,208
2022-12-11T12:17:27.004Z,216
2022-12-11T12:18:26.758Z,244
2022-12-11T12:19:26.755Z,288
2022-12-11T12:20:26.811Z,340
2022-12-11T12:21:26.755Z,340
2022-12-11T12:22:26.782Z,328
2022-12-11T12:23:28.763Z,280
2022-12-11T12:24:26.763Z,308
2022-12-11T12:25:26.860Z,280
2022-12-11T12:26:29.677Z,248
2022-12-11T12:27:58.237Z,232
2022-12-11T12:28:26.763Z,252
2022-12-11T12:29:26.832Z,304
2022-12-11T12:30:29.829Z,332
2022-12-11T12:31:29.867Z,328
2022-12-11T12:32:26.816Z,316
2022-12-11T12:33:26.774Z,296
2022-12-11T12:34:26.795Z,284
2022-12-11T12:35:26.816Z,236
2022-12-11T12:36:26.804Z,292
2022-12-11T12:37:29.536Z,260
2022-12-11T12:38:26.796Z,284
2022-12-11T12:39:26.810Z,284
2022-12-11T12:40:26.865Z,288
2022-12-11T12:41:26.805Z,284
2022-12-11T12:42:29.919Z,272
2022-12-11T12:43:26.798Z,268
2022-12-11T12:44:27.154Z,288
2022-12-11T12:45:27.021Z,300
2022-12-11T12:46:26.902Z,308
2022-12-11T12:47:26.802Z,320
2022-12-11T12:48:29.839Z,328
2022-12-11T12:49:26.822Z,320
2022-12-11T12:50:26.829Z,308
2022-12-11T12:51:26.808Z,284
2022-12-11T12:52:26.834Z,260
2022-12-11T12:53:29.855Z,264
2022-12-11T12:54:27.044Z,260
2022-12-11T12:55:26.843Z,264
2022-12-11T12:56:26.817Z,232
2022-12-11T12:57:26.825Z,244
2022-12-11T12:58:32.808Z,236
2022-12-11T12:59:29.968Z,232
2022-12-11T13:00:26.921Z,204
2022-12-11T13:01:27.280Z,192
2022-12-11T13:02:27.057Z,172
2022-12-11T13:03:26.662Z,168
2022-12-11T13:05:01.311Z,176
2022-12-11T13:05:26.855Z,176
2022-12-11T13:06:26.834Z,172
2022-12-11T13:07:26.833Z,164
2022-12-11T13:08:27.026Z,148
2022-12-11T13:09:26.867Z,140
2022-12-11T13:10:29.668Z,144
2022-12-11T13:11:27.010Z,152
2022-12-11T13:12:26.836Z,160
2022-12-11T13:13:26.837Z,156
2022-12-11T13:14:26.843Z,152
2022-12-11T13:15:30.413Z,156
2022-12-11T13:16:27.140Z,160
2022-12-11T13:17:26.881Z,164
2022-12-11T13:18:26.840Z,156
2022-12-11T13:19:26.884Z,144
2022-12-11T13:20:26.882Z,148
2022-12-11T13:21:29.861Z,164
2022-12-11T13:22:26.831Z,184
2022-12-11T13:23:26.838Z,188
2022-12-11T13:24:26.867Z,184
2022-12-11T13:25:26.951Z,180
2022-12-11T13:26:29.923Z,168
2022-12-11T13:27:26.891Z,152
2022-12-11T13:28:26.900Z,152
2022-12-11T13:29:26.929Z,148
2022-12-11T13:30:26.931Z,148
2022-12-11T13:31:27.097Z,152
2022-12-11T13:32:29.936Z,148
2022-12-11T13:33:26.901Z,140
2022-12-11T13:34:26.863Z,132
2022-12-11T13:35:26.921Z,128
2022-12-11T13:36:31.414Z,120
2022-12-11T13:37:29.891Z,116
2022-12-11T13:38:26.906Z,116
2022-12-11T13:39:26.997Z,112
2022-12-11T13:40:26.935Z,104
2022-12-11T13:41:26.974Z,104
2022-12-11T13:42:26.972Z,100
2022-12-11T13:43:30.070Z,100
2022-12-11T13:44:26.945Z,96
2022-12-11T13:45:27.060Z,96
2022-12-11T13:46:27.163Z,100
2022-12-11T13:47:26.981Z,100
2022-12-11T13:48:30.068Z,100
2022-12-11T13:49:26.981Z,104
2022-12-11T13:50:26.919Z,104
2022-12-11T13:51:26.984Z,116
2022-12-11T13:52:27.038Z,120
2022-12-11T13:53:26.907Z,116
2022-12-11T13:54:30.111Z,108
2022-12-11T13:55:27.010Z,112
2022-12-11T13:56:26.933Z,112
2022-12-11T13:57:26.899Z,116
2022-12-11T13:58:26.983Z,124
2022-12-11T13:59:29.834Z,128
2022-12-11T14:00:27.096Z,132
2022-12-11T14:01:30.212Z,140
2022-12-11T14:02:27.338Z,156
2022-12-11T14:03:26.959Z,156
2022-12-11T14:04:26.939Z,164
2022-12-11T14:05:30.280Z,156
2022-12-11T14:06:26.923Z,152
2022-12-11T14:07:26.915Z,148
2022-12-11T14:08:27.279Z,124
2022-12-11T14:09:26.939Z,112
2022-12-11T14:10:29.965Z,104
2022-12-11T14:11:26.944Z,104
2022-12-11T14:12:26.930Z,104
2022-12-11T14:13:26.959Z,108
2022-12-11T14:14:26.963Z,112
2022-12-11T14:15:26.989Z,116
2022-12-11T14:16:27.276Z,124
2022-12-11T14:17:26.950Z,132
2022-12-11T14:18:26.925Z,140